Time;durP1;ratioP1;P1;durP2;ratioP2;P2;SDS_P1;SDS_P2;PMS_P1;PMS_P2;Temp;Humidity;BMP_temperature;BMP_pressure;BME280_temperature;BME280_humidity;BME280_pressure;Samples;Min_cycle;Max_cycle;Signal;HPM_P1;HPM_P2
2022/10/01 00:00:52;;;;;;;;;;;;;;;63.55;3.82;100323.16;5114426;28;19919;-65
2022/10/01 00:03:19;;;;;;;;;;;;;;;64.10;3.12;100331.34;5096740;28;20259;-66
2022/10/01 00:05:46;;;;;;;;;;;;;;;63.43;3.75;100334.28;5114975;28;19916;-65
2022/10/01 00:08:13;;;;;;;;;;;;;;;64.48;3.88;100320.81;5115016;28;19960;-65
2022/10/01 00:10:40;;;;;;;;;;;;;;;63.06;3.89;100329.22;5115074;28;20006;-65
2022/10/01 00:13:07;;;;;;;;;;;;;;;63.29;3.92;100330.53;5114870;28;20404;-65
2022/10/01 00:15:34;;;;;;;;;;;;;;;62.29;4.17;100329.66;5115111;28;19916;-66
2022/10/01 00:18:01;;;;;;;;;;;;;;;64.02;3.54;100322.81;5114730;28;20396;-64
2022/10/01 00:20:27;;;;;;;;;;;;;;;59.55;5.71;100324.41;5114520;28;20010;-65
2022/10/01 00:22:53;;;;;;;;;;;;;;;62.47;4.14;100321.97;5114444;28;20377;-66
2022/10/01 00:25:19;;;;;;;;;;;;;;;61.04;4.77;100327.56;5114516;28;19973;-66
2022/10/01 00:27:45;;;;;;;;;;;;;;;62.72;4.49;100339.72;5114703;28;20393;-65
2022/10/01 00:30:12;;;;;;;;;;;;;;;58.91;6.73;100339.44;5114705;28;19920;-66
2022/10/01 00:32:40;;;;;;;;;;;;;;;57.78;6.74;100331.22;5114725;28;19958;-65
2022/10/01 00:35:08;;;;;;;;;;;;;;;56.80;7.56;100331.09;5114396;28;20279;-66
2022/10/01 00:37:36;;;;;;;;;;;;;;;58.09;7.37;100334.47;5114458;28;19922;-65
2022/10/01 00:40:05;;;;;;;;;;;;;;;58.82;7.06;100330.63;5114181;28;19927;-66
2022/10/01 00:42:32;;;;;;;;;;;;;;;58.98;6.23;100331.88;5097982;28;19963;-67
2022/10/01 00:45:02;;;;;;;;;;;;;;;58.06;6.96;100335.69;5095587;28;20398;-66
2022/10/01 00:47:34;;;;;;;;;;;;;;;57.26;7.32;100340.13;5071118;28;19931;-66
2022/10/01 00:50:06;;;;;;;;;;;;;;;57.44;7.41;100332.88;5080750;28;19978;-65
2022/10/01 00:52:35;;;;;;;;;;;;;;;57.76;7.26;100334.78;5103347;28;20010;-66
2022/10/01 00:55:06;;;;;;;;;;;;;;;55.41;8.94;100335.66;5082026;28;20350;-66
2022/10/01 00:57:33;;;;;;;;;;;;;;;54.20;9.57;100346.13;5105260;28;20328;-65
2022/10/01 01:00:01;;;;;;;;;;;;;;;53.95;9.60;100346.69;5101290;28;19916;-65
2022/10/01 01:02:28;;;;;;;;;;;;;;;53.74;9.66;100336.56;5105732;28;19920;-66
2022/10/01 01:04:54;;;;;;;;;;;;;;;53.72;10.98;100345.88;5107875;28;19920;-63
2022/10/01 01:07:22;;;;;;;;;;;;;;;52.83;10.66;100341.38;5102597;28;20347;-63
2022/10/01 01:09:49;;;;;;;;;;;;;;;52.78;11.04;100342.28;5096077;28;20287;-65
2022/10/01 01:12:23;;;;;;;;;;;;;;;53.83;9.82;100333.09;5097606;28;19920;-63
2022/10/01 01:14:58;;;;;;;;;;;;;;;54.46;9.38;100347.91;5098898;28;19971;-66
2022/10/01 01:17:34;;;;;;;;;;;;;;;53.94;9.82;100345.13;5096337;28;20030;-64
2022/10/01 01:20:19;;;;;;;;;;;;;;;53.24;11.17;100345.47;5098218;28;20292;-64
2022/10/01 01:22:53;;;;;;;;;;;;;;;52.74;11.16;100352.72;5096135;28;19920;-63
2022/10/01 01:25:21;;;;;;;;;;;;;;;52.11;11.84;100358.56;5097808;28;19928;-61
2022/10/01 01:27:47;;;;;;;;;;;;;;;52.22;11.52;100361.16;5099751;28;20006;-65
2022/10/01 01:30:15;;;;;;;;;;;;;;;52.24;11.80;100361.38;5101778;28;20018;-64
2022/10/01 01:32:45;;;;;;;;;;;;;;;52.06;12.25;100361.59;5103239;28;19920;-63
2022/10/01 01:35:15;;;;;;;;;;;;;;;52.12;11.86;100370.94;5105310;28;19984;-64
2022/10/01 01:37:44;;;;;;;;;;;;;;;51.58;12.03;100373.22;5101736;28;19981;-62
2022/10/01 01:40:12;;;;;;;;;;;;;;;52.55;11.16;100361.66;5106376;28;20468;-63
2022/10/01 01:42:41;;;;;;;;;;;;;;;51.87;11.88;100373.34;5104749;28;19982;-63
2022/10/01 01:45:10;;;;;;;;;;;;;;;52.31;11.81;100376.53;5104632;28;19959;-63
2022/10/01 01:47:38;;;;;;;;;;;;;;;49.76;14.18;100386.22;5106892;28;20390;-63
2022/10/01 01:50:06;;;;;;;;;;;;;;;51.47;12.86;100384.25;5102910;28;20492;-63
2022/10/01 01:52:33;;;;;;;;;;;;;;;51.07;13.25;100378.50;5106307;28;19935;-64
2022/10/01 01:55:06;;;;;;;;;;;;;;;52.08;12.25;100379.22;5105875;28;19911;-63
2022/10/01 01:57:36;;;;;;;;;;;;;;;52.09;12.03;100378.66;5103567;28;19930;-63
2022/10/01 02:00:03;;;;;;;;;;;;;;;50.84;13.34;100383.94;5097884;28;19916;-63
2022/10/01 02:02:34;;;;;;;;;;;;;;;50.80;13.59;100380.56;5105003;28;20006;-64
2022/10/01 02:05:02;;;;;;;;;;;;;;;50.47;13.90;100379.84;5106590;28;20010;-64
2022/10/01 02:07:34;;;;;;;;;;;;;;;50.44;13.48;100395.41;5105505;28;19920;-64
2022/10/01 02:10:12;;;;;;;;;;;;;;;50.77;13.49;100387.47;5102017;28;19927;-64
2022/10/01 02:12:45;;;;;;;;;;;;;;;50.91;12.91;100383.25;5106191;28;19924;-64
2022/10/01 02:15:35;;;;;;;;;;;;;;;50.84;13.27;100388.94;5105936;28;19916;-64
2022/10/01 02:18:02;;;;;;;;;;;;;;;51.25;12.73;100382.59;5106710;28;19923;-64
2022/10/01 02:20:36;;;;;;;;;;;;;;;51.35;13.13;100387.41;5099034;28;20294;-64
2022/10/01 02:23:05;;;;;;;;;;;;;;;51.12;12.62;100385.50;5090103;28;20014;-64
2022/10/01 02:25:34;;;;;;;;;;;;;;;50.60;13.89;100392.78;5106119;28;19920;-63
2022/10/01 02:28:05;;;;;;;;;;;;;;;51.34;12.86;100391.59;5095104;28;20018;-64
2022/10/01 02:30:34;;;;;;;;;;;;;;;50.35;14.05;100400.84;5102688;28;20388;-64
2022/10/01 02:33:04;;;;;;;;;;;;;;;50.32;13.76;100402.69;5109719;28;20458;-64
2022/10/01 02:35:32;;;;;;;;;;;;;;;50.85;13.39;100399.19;5111057;28;19920;-64
2022/10/01 02:38:00;;;;;;;;;;;;;;;50.48;13.73;100400.88;5108685;28;19919;-64
2022/10/01 02:40:29;;;;;;;;;;;;;;;50.52;14.30;100409.22;5106665;28;19959;-64
2022/10/01 02:42:59;;;;;;;;;;;;;;;49.82;14.80;100410.03;5111167;28;20007;-64
2022/10/01 02:45:26;;;;;;;;;;;;;;;49.22;15.17;100410.25;5109165;28;19923;-64
2022/10/01 02:47:56;;;;;;;;;;;;;;;49.17;15.85;100416.84;5109858;28;19938;-65
2022/10/01 02:50:25;;;;;;;;;;;;;;;49.74;14.29;100423.56;5111850;28;20360;-64
2022/10/01 02:52:54;;;;;;;;;;;;;;;49.93;14.82;100423.53;5105822;28;20570;-64
2022/10/01 02:55:29;;;;;;;;;;;;;;;49.38;15.07;100431.59;5107789;28;19924;-65
2022/10/01 02:57:56;;;;;;;;;;;;;;;49.90;14.44;100419.59;5101571;28;20342;-63
2022/10/01 03:00:22;;;;;;;;;;;;;;;49.78;14.74;100424.00;5110323;28;19977;-65
2022/10/01 03:02:48;;;;;;;;;;;;;;;49.26;15.34;100424.38;5111549;28;19919;-64
2022/10/01 03:05:15;;;;;;;;;;;;;;;49.72;15.57;100434.84;5108832;28;20396;-63
2022/10/01 03:07:42;;;;;;;;;;;;;;;48.43;16.55;100435.34;5111497;28;20195;-64
2022/10/01 03:10:09;;;;;;;;;;;;;;;48.38;16.77;100436.97;5107309;28;19919;-64
2022/10/01 03:12:35;;;;;;;;;;;;;;;48.76;16.70;100445.06;5111547;28;19927;-64
2022/10/01 03:15:03;;;;;;;;;;;;;;;48.61;16.71;100446.25;5110384;28;19916;-64
2022/10/01 03:17:29;;;;;;;;;;;;;;;50.12;15.06;100447.44;5100437;28;19924;-63
2022/10/01 03:19:55;;;;;;;;;;;;;;;49.60;15.96;100460.22;5104140;28;19954;-64
2022/10/01 03:22:22;;;;;;;;;;;;;;;48.48;17.05;100459.69;5099664;28;20000;-63
2022/10/01 03:24:48;;;;;;;;;;;;;;;49.29;15.96;100464.50;5103474;28;20030;-64
2022/10/01 03:27:16;;;;;;;;;;;;;;;49.35;16.53;100466.56;5114355;28;19920;-63
2022/10/01 03:29:43;;;;;;;;;;;;;;;50.14;15.44;100473.72;5103951;28;19920;-63
2022/10/01 03:32:09;;;;;;;;;;;;;;;49.81;15.69;100477.81;5109190;28;19946;-63
2022/10/01 03:34:35;;;;;;;;;;;;;;;49.59;15.84;100469.44;5106649;28;19920;-63
2022/10/01 03:37:01;;;;;;;;;;;;;;;49.51;16.37;100477.13;5107395;28;20037;-63
2022/10/01 03:39:28;;;;;;;;;;;;;;;48.80;16.70;100478.06;5105718;28;20390;-63
2022/10/01 03:41:54;;;;;;;;;;;;;;;48.87;17.11;100479.59;5108857;28;19921;-64
2022/10/01 03:44:20;;;;;;;;;;;;;;;49.07;16.62;100476.28;5099694;28;20386;-64
2022/10/01 03:46:47;;;;;;;;;;;;;;;49.55;15.76;100475.47;5112557;28;19969;-64
2022/10/01 03:49:13;;;;;;;;;;;;;;;49.29;16.22;100481.84;5099429;28;19917;-64
2022/10/01 03:51:39;;;;;;;;;;;;;;;49.30;16.37;100485.50;5114925;27;19942;-63
2022/10/01 03:54:06;;;;;;;;;;;;;;;49.26;16.39;100482.13;5129259;27;20411;-64
2022/10/01 03:56:33;;;;;;;;;;;;;;;48.93;16.69;100492.66;5111039;28;19927;-63
2022/10/01 03:59:00;;;;;;;;;;;;;;;49.47;16.50;100491.09;5110572;28;19916;-63
2022/10/01 04:01:26;;;;;;;;;;;;;;;49.73;16.35;100490.53;5111020;28;19927;-63
2022/10/01 04:03:53;;;;;;;;;;;;;;;50.18;15.62;100493.63;5108064;28;20215;-64
2022/10/01 04:06:19;;;;;;;;;;;;;;;50.00;15.96;100485.75;5113775;28;19919;-63
2022/10/01 04:08:47;;;;;;;;;;;;;;;50.26;15.14;100497.44;5103517;28;20492;-65
2022/10/01 04:11:13;;;;;;;;;;;;;;;50.12;15.69;100493.72;5108592;27;19927;-63
2022/10/01 04:13:40;;;;;;;;;;;;;;;49.53;15.91;100498.38;5094513;28;20310;-64
2022/10/01 04:16:06;;;;;;;;;;;;;;;49.49;15.93;100497.88;5103862;27;19920;-63
2022/10/01 04:18:33;;;;;;;;;;;;;;;50.07;15.24;100497.44;5116788;27;19923;-64
2022/10/01 04:20:59;;;;;;;;;;;;;;;49.38;16.13;100494.34;5114877;27;19935;-65
2022/10/01 04:23:25;;;;;;;;;;;;;;;49.46;16.14;100498.19;5097610;28;19920;-63
2022/10/01 04:25:52;;;;;;;;;;;;;;;50.22;15.16;100508.53;5103379;27;20322;-64
2022/10/01 04:28:18;;;;;;;;;;;;;;;48.79;16.45;100504.59;5113460;28;19926;-63
2022/10/01 04:30:45;;;;;;;;;;;;;;;49.72;14.96;100507.09;5108209;28;19920;-63
2022/10/01 04:33:13;;;;;;;;;;;;;;;49.97;15.38;100504.16;5113561;28;20301;-63
2022/10/01 04:35:39;;;;;;;;;;;;;;;48.43;16.96;100504.56;5079867;28;20014;-64
2022/10/01 04:38:07;;;;;;;;;;;;;;;48.95;15.93;100500.81;5106211;27;19965;-63
2022/10/01 04:40:34;;;;;;;;;;;;;;;50.01;15.23;100504.66;5103655;27;20009;-64
2022/10/01 04:43:01;;;;;;;;;;;;;;;49.83;15.48;100506.19;5113634;28;20345;-63
2022/10/01 04:45:28;;;;;;;;;;;;;;;50.16;14.85;100517.31;5108972;28;19920;-63
2022/10/01 04:47:55;;;;;;;;;;;;;;;50.30;14.68;100511.59;5099119;27;19919;-64
2022/10/01 04:50:23;;;;;;;;;;;;;;;50.52;15.13;100501.81;5119496;27;19924;-64
2022/10/01 04:52:49;;;;;;;;;;;;;;;50.86;14.10;100505.75;5094954;28;19911;-63
2022/10/01 04:55:17;;;;;;;;;;;;;;;50.57;14.34;100506.72;5109078;28;20316;-63
2022/10/01 04:57:43;;;;;;;;;;;;;;;50.66;14.14;100506.31;5105559;28;19920;-63
2022/10/01 05:00:11;;;;;;;;;;;;;;;50.48;14.88;100510.81;5109938;28;19959;-64
2022/10/01 05:02:37;;;;;;;;;;;;;;;50.11;14.75;100512.41;5113453;28;19916;-63
2022/10/01 05:05:05;;;;;;;;;;;;;;;50.46;14.71;100505.59;5105485;28;19922;-63
2022/10/01 05:07:32;;;;;;;;;;;;;;;49.84;15.35;100508.53;5109820;28;19926;-63
2022/10/01 05:09:59;;;;;;;;;;;;;;;50.51;14.24;100511.84;5108196;28;19922;-65
2022/10/01 05:12:26;;;;;;;;;;;;;;;50.65;14.87;100504.75;5108234;27;19959;-64
2022/10/01 05:14:53;;;;;;;;;;;;;;;50.28;14.62;100508.47;5096039;28;19931;-64
2022/10/01 05:17:20;;;;;;;;;;;;;;;49.98;15.10;100515.19;5103404;28;20397;-68
2022/10/01 05:19:47;;;;;;;;;;;;;;;50.33;14.89;100514.19;5100304;28;19927;-67
2022/10/01 05:22:14;;;;;;;;;;;;;;;50.37;14.47;100514.66;5084926;28;19923;-63
2022/10/01 05:24:40;;;;;;;;;;;;;;;50.59;14.09;100516.41;5104448;28;19920;-66
2022/10/01 05:27:12;;;;;;;;;;;;;;;50.64;14.16;100515.56;5103299;28;20287;-66
2022/10/01 05:29:40;;;;;;;;;;;;;;;50.57;14.08;100509.63;5087241;28;19920;-66
2022/10/01 05:32:07;;;;;;;;;;;;;;;50.43;13.89;100512.44;5108688;28;20270;-66
2022/10/01 05:34:33;;;;;;;;;;;;;;;50.51;14.34;100514.72;5109728;28;19956;-66
2022/10/01 05:37:01;;;;;;;;;;;;;;;50.63;14.36;100513.19;5100726;28;19922;-66
2022/10/01 05:39:28;;;;;;;;;;;;;;;50.62;14.21;100518.19;5089974;28;19963;-65
2022/10/01 05:41:55;;;;;;;;;;;;;;;50.54;13.92;100520.19;5097684;27;19959;-66
2022/10/01 05:44:22;;;;;;;;;;;;;;;50.68;14.46;100510.25;5105435;28;19931;-66
2022/10/01 05:46:49;;;;;;;;;;;;;;;50.24;14.55;100526.13;5082111;28;19923;-65
2022/10/01 05:49:16;;;;;;;;;;;;;;;50.52;14.56;100508.38;5102160;28;19920;-67
2022/10/01 05:51:43;;;;;;;;;;;;;;;50.38;14.82;100510.44;5096959;28;20120;-63
2022/10/01 05:54:09;;;;;;;;;;;;;;;49.28;15.48;100511.22;5121361;28;20060;-63
2022/10/01 05:56:36;;;;;;;;;;;;;;;49.97;14.55;100516.50;5110117;28;20417;-66
2022/10/01 05:59:02;;;;;;;;;;;;;;;50.12;14.41;100516.06;5102557;28;20028;-65
2022/10/01 06:01:29;;;;;;;;;;;;;;;50.05;15.08;100516.69;5098337;28;19916;-66
2022/10/01 06:03:55;;;;;;;;;;;;;;;50.30;14.99;100515.28;5099711;28;19936;-68
2022/10/01 06:06:22;;;;;;;;;;;;;;;50.54;14.64;100517.28;5091037;28;19930;-63
2022/10/01 06:08:48;;;;;;;;;;;;;;;50.44;14.36;100519.78;5118135;27;19919;-66
2022/10/01 06:11:15;;;;;;;;;;;;;;;50.55;14.53;100515.19;5099976;28;19916;-65
2022/10/01 06:13:44;;;;;;;;;;;;;;;50.40;13.91;100525.13;5129566;27;20010;-66
2022/10/01 06:16:10;;;;;;;;;;;;;;;50.19;14.45;100524.09;5107454;27;20044;-64
2022/10/01 06:18:37;;;;;;;;;;;;;;;50.40;14.17;100530.91;5119510;27;19935;-65
2022/10/01 06:21:03;;;;;;;;;;;;;;;50.01;14.76;100533.56;5109274;28;20393;-66
2022/10/01 06:23:30;;;;;;;;;;;;;;;50.35;14.68;100533.91;5113322;28;19920;-68
2022/10/01 06:25:58;;;;;;;;;;;;;;;50.40;14.30;100536.69;5108874;28;19963;-66
2022/10/01 06:28:24;;;;;;;;;;;;;;;50.43;14.08;100541.38;5111168;27;19919;-65
2022/10/01 06:30:50;;;;;;;;;;;;;;;50.44;14.63;100540.06;5117610;27;20358;-65
2022/10/01 06:33:17;;;;;;;;;;;;;;;50.10;14.40;100548.44;5100627;28;20310;-66
2022/10/01 06:35:46;;;;;;;;;;;;;;;49.94;14.69;100551.50;5112066;28;19994;-64
2022/10/01 06:38:12;;;;;;;;;;;;;;;50.24;14.39;100546.38;5108221;28;19935;-66
2022/10/01 06:40:39;;;;;;;;;;;;;;;50.16;14.49;100539.66;5080742;28;19916;-65
2022/10/01 06:43:07;;;;;;;;;;;;;;;50.00;15.07;100547.25;5109645;28;19934;-66
2022/10/01 06:45:37;;;;;;;;;;;;;;;50.19;14.99;100550.13;5098543;27;20763;-66
2022/10/01 06:48:04;;;;;;;;;;;;;;;50.11;15.10;100552.09;5110517;27;19928;-67
2022/10/01 06:50:30;;;;;;;;;;;;;;;50.13;14.92;100558.13;5103633;28;19915;-67
2022/10/01 06:52:57;;;;;;;;;;;;;;;50.13;14.69;100550.22;5115226;28;19920;-65
2022/10/01 06:55:25;;;;;;;;;;;;;;;50.27;14.84;100545.28;5099351;28;20023;-65
2022/10/01 06:57:55;;;;;;;;;;;;;;;50.33;14.41;100546.00;5128857;27;20310;-66
2022/10/01 07:00:22;;;;;;;;;;;;;;;50.23;14.79;100547.69;5109205;27;19923;-67
2022/10/01 07:02:48;;;;;;;;;;;;;;;50.07;14.87;100542.94;5116442;27;19912;-65
2022/10/01 07:05:14;;;;;;;;;;;;;;;50.17;14.43;100547.00;5108580;28;19924;-66
2022/10/01 07:07:41;;;;;;;;;;;;;;;50.12;14.66;100545.00;5098143;27;19923;-64
2022/10/01 07:10:08;;;;;;;;;;;;;;;50.23;14.14;100546.91;5111190;28;19923;-66
2022/10/01 07:12:35;;;;;;;;;;;;;;;50.05;14.14;100549.25;5105988;28;19920;-66
2022/10/01 07:15:01;;;;;;;;;;;;;;;50.07;14.62;100537.94;5120334;27;19916;-68
2022/10/01 07:17:27;;;;;;;;;;;;;;;49.68;14.77;100544.19;5102744;27;19916;-65
2022/10/01 07:19:54;;;;;;;;;;;;;;;49.72;14.74;100541.75;5103325;28;19928;-66
2022/10/01 07:22:22;;;;;;;;;;;;;;;49.85;14.82;100541.88;5114756;28;19943;-66
2022/10/01 07:24:49;;;;;;;;;;;;;;;50.04;14.00;100546.91;5103827;28;20231;-66
2022/10/01 07:27:16;;;;;;;;;;;;;;;50.05;14.29;100552.16;5109280;28;19972;-64
2022/10/01 07:29:42;;;;;;;;;;;;;;;50.04;14.49;100555.59;5104962;28;19923;-66
2022/10/01 07:32:09;;;;;;;;;;;;;;;49.76;14.50;100550.16;5112137;28;19944;-67
2022/10/01 07:34:36;;;;;;;;;;;;;;;49.76;14.73;100548.03;5101095;28;19953;-66
2022/10/01 07:37:02;;;;;;;;;;;;;;;49.62;14.66;100549.22;5120528;27;19926;-66
2022/10/01 07:39:29;;;;;;;;;;;;;;;49.79;14.70;100546.94;5101387;27;19927;-64
2022/10/01 07:41:55;;;;;;;;;;;;;;;49.93;14.74;100549.94;5103022;28;19975;-65
2022/10/01 07:44:22;;;;;;;;;;;;;;;49.74;14.70;100544.91;5107346;28;19927;-65
2022/10/01 07:46:48;;;;;;;;;;;;;;;49.84;14.81;100543.19;5105156;28;19922;-67
2022/10/01 07:49:15;;;;;;;;;;;;;;;49.63;15.34;100541.34;5083656;28;20018;-69
2022/10/01 07:51:47;;;;;;;;;;;;;;;49.61;15.86;100554.22;5112150;28;19912;-67
2022/10/01 07:54:14;;;;;;;;;;;;;;;49.77;15.52;100555.38;5107991;28;19924;-66
2022/10/01 07:56:40;;;;;;;;;;;;;;;49.81;15.73;100549.28;5093380;28;19924;-65
2022/10/01 07:59:09;;;;;;;;;;;;;;;49.57;15.98;100555.84;5098838;28;19919;-65
2022/10/01 08:01:36;;;;;;;;;;;;;;;49.17;16.56;100555.44;5104835;28;19922;-66
2022/10/01 08:05:16;;;;;;;;;;;;;;;49.60;16.60;100544.00;5101198;28;20053;-69
2022/10/01 08:06:50;;;;;;;;;;;;;;;49.77;16.81;100552.50;5104342;28;19932;-68
2022/10/01 08:09:16;;;;;;;;;;;;;;;49.78;16.41;100551.16;5102453;28;19916;-67
2022/10/01 08:11:44;;;;;;;;;;;;;;;49.35;17.72;100551.09;5104145;28;20423;-66
2022/10/01 08:14:11;;;;;;;;;;;;;;;49.08;18.07;100558.69;5104845;28;19955;-66
2022/10/01 08:16:39;;;;;;;;;;;;;;;49.52;17.94;100563.25;5105799;28;19920;-67
2022/10/01 08:19:08;;;;;;;;;;;;;;;49.61;17.58;100565.78;5103968;28;19973;-65
2022/10/01 08:21:34;;;;;;;;;;;;;;;49.51;17.58;100561.69;5104708;28;20003;-66
2022/10/01 08:24:01;;;;;;;;;;;;;;;49.46;18.25;100574.09;5104124;28;19926;-67
2022/10/01 08:26:28;;;;;;;;;;;;;;;49.25;18.11;100573.75;5104379;28;19927;-66
2022/10/01 08:28:54;;;;;;;;;;;;;;;49.05;18.29;100571.31;5102888;28;20432;-67
2022/10/01 08:31:20;;;;;;;;;;;;;;;48.73;18.63;100582.56;5104886;28;20409;-67
2022/10/01 08:33:46;;;;;;;;;;;;;;;49.02;18.67;100575.28;5104142;28;20382;-66
2022/10/01 08:36:13;;;;;;;;;;;;;;;48.03;19.71;100578.16;5102804;28;19928;-65
2022/10/01 08:38:39;;;;;;;;;;;;;;;48.45;18.91;100565.38;5104816;28;19912;-66
2022/10/01 08:41:28;;;;;;;;;;;;;;;48.24;19.30;100572.84;5102041;28;20045;-66
2022/10/01 08:43:54;;;;;;;;;;;;;;;48.74;19.32;100575.47;5091539;28;20386;-66
2022/10/01 08:46:24;;;;;;;;;;;;;;;48.53;18.95;100577.94;5104278;28;19916;-66
2022/10/01 08:48:59;;;;;;;;;;;;;;;48.94;18.88;100580.06;5104397;28;19927;-68
2022/10/01 08:51:28;;;;;;;;;;;;;;;48.62;18.99;100573.97;5104227;28;19941;-65
2022/10/01 08:53:58;;;;;;;;;;;;;;;48.38;19.33;100575.41;5086147;28;19998;-67
2022/10/01 08:56:29;;;;;;;;;;;;;;;48.46;19.37;100583.47;5103861;28;19920;-66
2022/10/01 08:58:57;;;;;;;;;;;;;;;48.73;19.22;100576.78;5102147;28;19920;-67
2022/10/01 09:01:25;;;;;;;;;;;;;;;48.43;19.13;100591.09;5103611;28;19930;-65
2022/10/01 09:03:51;;;;;;;;;;;;;;;48.65;19.38;100585.22;5104027;28;19920;-65
2022/10/01 09:06:19;;;;;;;;;;;;;;;48.55;19.31;100586.84;5102503;28;19916;-66
2022/10/01 09:09:04;;;;;;;;;;;;;;;48.62;18.82;100586.28;5103146;28;19919;-65
2022/10/01 09:11:54;;;;;;;;;;;;;;;48.77;18.68;100582.25;5103846;28;19950;-65
2022/10/01 09:14:21;;;;;;;;;;;;;;;48.75;18.63;100587.78;5103496;28;19920;-67
2022/10/01 09:17:05;;;;;;;;;;;;;;;48.92;19.07;100582.66;5085265;28;19916;-66
2022/10/01 09:19:40;;;;;;;;;;;;;;;48.84;19.11;100590.31;5103988;28;19923;-66
2022/10/01 09:22:15;;;;;;;;;;;;;;;48.01;20.34;100587.34;5103893;28;19963;-66
2022/10/01 09:24:46;;;;;;;;;;;;;;;48.29;19.91;100589.34;5102629;28;19966;-67
2022/10/01 09:27:12;;;;;;;;;;;;;;;48.42;18.91;100584.53;5096524;28;19943;-68
2022/10/01 09:29:42;;;;;;;;;;;;;;;47.35;20.63;100585.34;5058466;28;19923;-67
2022/10/01 09:32:11;;;;;;;;;;;;;;;47.72;20.83;100591.59;5093112;28;19920;-68
2022/10/01 09:34:40;;;;;;;;;;;;;;;47.30;20.93;100586.94;5093073;28;19916;-69
2022/10/01 09:37:20;;;;;;;;;;;;;;;47.73;20.60;100580.84;5092510;28;20714;-66
2022/10/01 09:40:05;;;;;;;;;;;;;;;47.75;20.61;100572.47;5092691;28;19920;-67
2022/10/01 09:42:32;;;;;;;;;;;;;;;47.62;20.96;100569.38;5092573;28;20018;-67
2022/10/01 09:44:58;;;;;;;;;;;;;;;47.60;20.70;100569.13;5092801;28;19924;-68
2022/10/01 09:47:25;;;;;;;;;;;;;;;47.62;20.49;100563.63;5092920;28;19920;-67
2022/10/01 09:49:51;;;;;;;;;;;;;;;48.11;20.12;100571.31;5092960;28;19924;-67
2022/10/01 09:52:25;;;;;;;;;;;;;;;46.91;22.22;100579.06;5107336;28;19967;-68
2022/10/01 09:55:01;;;;;;;;;;;;;;;47.51;21.12;100564.41;5113169;28;20386;-67
2022/10/01 09:57:31;;;;;;;;;;;;;;;47.57;21.13;100568.06;5113001;28;19920;-68
2022/10/01 10:00:11;;;;;;;;;;;;;;;47.55;20.97;100564.94;5113113;28;19924;-66
2022/10/01 10:02:41;;;;;;;;;;;;;;;47.98;20.73;100562.47;5113229;28;19920;-67
2022/10/01 10:05:12;;;;;;;;;;;;;;;48.10;20.28;100561.09;5113092;28;19938;-68
2022/10/01 10:07:41;;;;;;;;;;;;;;;48.23;19.84;100569.19;5113070;28;20273;-65
2022/10/01 10:10:09;;;;;;;;;;;;;;;48.20;20.23;100555.81;5112916;28;19919;-68
2022/10/01 10:12:35;;;;;;;;;;;;;;;48.03;20.41;100563.75;5113087;28;19969;-66
2022/10/01 10:15:09;;;;;;;;;;;;;;;48.08;20.16;100562.94;5113162;28;19919;-67
2022/10/01 10:17:36;;;;;;;;;;;;;;;47.28;21.56;100563.66;5112966;28;19970;-66
2022/10/01 10:20:09;;;;;;;;;;;;;;;46.97;22.22;100558.91;5094615;28;19920;-67
2022/10/01 10:22:36;;;;;;;;;;;;;;;47.46;21.73;100563.09;5112773;28;19924;-67
2022/10/01 10:25:10;;;;;;;;;;;;;;;47.20;21.67;100563.38;5112881;28;19922;-66
2022/10/01 10:27:36;;;;;;;;;;;;;;;46.58;22.50;100564.63;5104911;28;19927;-67
2022/10/01 10:30:12;;;;;;;;;;;;;;;47.33;21.88;100565.72;5092446;28;19924;-66
2022/10/01 10:32:39;;;;;;;;;;;;;;;47.21;21.72;100567.81;5074351;28;19924;-67
2022/10/01 10:35:09;;;;;;;;;;;;;;;46.55;22.63;100571.41;5092480;28;19923;-66
2022/10/01 10:37:44;;;;;;;;;;;;;;;46.61;23.10;100569.31;5092422;28;19999;-65
2022/10/01 10:40:19;;;;;;;;;;;;;;;47.51;21.78;100570.97;5092548;28;20402;-66
2022/10/01 10:42:49;;;;;;;;;;;;;;;47.66;21.43;100569.88;5092415;28;19927;-66
2022/10/01 10:45:21;;;;;;;;;;;;;;;47.31;21.94;100567.56;5090598;28;20023;-65
2022/10/01 10:47:51;;;;;;;;;;;;;;;47.74;21.43;100559.38;5077291;28;19920;-66
2022/10/01 10:50:30;;;;;;;;;;;;;;;47.96;20.99;100562.22;5096247;28;19920;-66
2022/10/01 10:52:56;;;;;;;;;;;;;;;48.02;21.39;100557.22;5097427;28;19919;-66
2022/10/01 10:55:23;;;;;;;;;;;;;;;47.93;21.15;100560.38;5098260;28;19915;-66
2022/10/01 10:57:51;;;;;;;;;;;;;;;47.29;21.65;100564.44;5115907;28;20294;-66
2022/10/01 11:00:19;;;;;;;;;;;;;;;47.68;21.54;100567.25;5116435;28;19954;-66
2022/10/01 11:02:55;;;;;;;;;;;;;;;47.34;21.66;100555.78;5098392;28;19964;-66
2022/10/01 11:05:30;;;;;;;;;;;;;;;47.54;21.61;100558.38;5098069;28;19945;-67
2022/10/01 11:08:02;;;;;;;;;;;;;;;47.65;21.46;100565.44;5116274;28;19920;-66
2022/10/01 11:10:37;;;;;;;;;;;;;;;47.58;21.74;100563.09;5098132;28;19923;-67
2022/10/01 11:13:13;;;;;;;;;;;;;;;47.44;21.38;100564.94;5097778;28;19923;-66
2022/10/01 11:15:40;;;;;;;;;;;;;;;47.66;21.06;100559.16;5098075;28;19973;-66
2022/10/01 11:18:09;;;;;;;;;;;;;;;47.87;20.96;100564.59;5097885;28;19919;-66
2022/10/01 11:20:55;;;;;;;;;;;;;;;47.46;21.72;100563.09;5115658;28;19920;-67
2022/10/01 11:23:26;;;;;;;;;;;;;;;47.87;21.07;100558.84;5094600;28;20281;-68
2022/10/01 11:26:15;;;;;;;;;;;;;;;47.81;21.27;100564.59;5095645;28;19973;-68
2022/10/01 11:28:44;;;;;;;;;;;;;;;47.62;21.31;100572.25;5095571;28;19926;-68
2022/10/01 11:31:11;;;;;;;;;;;;;;;47.90;20.80;100564.31;5095373;28;19942;-67
2022/10/01 11:33:46;;;;;;;;;;;;;;;47.83;20.72;100568.53;5095670;28;19920;-68
2022/10/01 11:36:18;;;;;;;;;;;;;;;47.93;20.73;100574.78;5095505;28;19924;-69
2022/10/01 11:38:47;;;;;;;;;;;;;;;47.89;21.29;100571.41;5095530;28;20332;-67
2022/10/01 11:41:22;;;;;;;;;;;;;;;47.74;21.31;100570.91;5095395;28;19927;-68
2022/10/01 11:43:51;;;;;;;;;;;;;;;46.62;22.69;100570.88;5095500;28;20018;-67
2022/10/01 11:46:39;;;;;;;;;;;;;;;47.46;21.59;100563.09;5095878;28;20007;-67
2022/10/01 11:49:18;;;;;;;;;;;;;;;46.73;22.68;100581.63;5095360;28;20017;-65
2022/10/01 11:51:52;;;;;;;;;;;;;;;46.48;23.00;100578.44;5093777;28;19965;-67
2022/10/01 11:54:23;;;;;;;;;;;;;;;47.35;22.12;100580.38;5094162;28;19985;-68
2022/10/01 11:59:50;;;;;;;;;;;;;;;46.91;22.63;100586.91;5093963;28;19920;-66
2022/10/01 12:02:17;;;;;;;;;;;;;;;47.13;22.61;100583.25;5094830;28;19920;-67
2022/10/01 12:04:44;;;;;;;;;;;;;;;47.21;22.21;100581.44;5093672;28;19920;-68
2022/10/01 12:07:17;;;;;;;;;;;;;;;47.50;21.72;100583.00;5093458;28;20253;-66
2022/10/01 12:09:46;;;;;;;;;;;;;;;47.66;21.91;100592.94;5093641;28;19920;-67
2022/10/01 12:12:35;;;;;;;;;;;;;;;47.68;21.56;100587.44;5094539;28;19923;-66
2022/10/01 12:15:01;;;;;;;;;;;;;;;47.94;20.79;100590.78;5094583;28;19928;-65
2022/10/01 12:17:50;;;;;;;;;;;;;;;47.50;22.04;100594.53;5094687;28;20362;-65
2022/10/01 12:20:39;;;;;;;;;;;;;;;47.60;22.00;100589.28;5088937;28;19920;-67
2022/10/01 12:23:08;;;;;;;;;;;;;;;47.13;22.38;100591.88;5106505;28;20018;-66
2022/10/01 12:25:50;;;;;;;;;;;;;;;46.54;23.04;100601.47;5114751;28;19924;-66
2022/10/01 12:28:21;;;;;;;;;;;;;;;46.34;23.89;100606.09;5114674;28;20378;-67
2022/10/01 12:31:07;;;;;;;;;;;;;;;46.71;23.04;100602.31;5114641;28;20333;-64
2022/10/01 12:33:36;;;;;;;;;;;;;;;46.55;23.14;100609.59;5096358;28;20026;-65
2022/10/01 12:36:16;;;;;;;;;;;;;;;46.82;23.09;100602.31;5096448;28;19915;-66
2022/10/01 12:38:43;;;;;;;;;;;;;;;46.53;23.52;100614.28;5114744;28;20414;-66
2022/10/01 12:41:18;;;;;;;;;;;;;;;46.41;23.94;100607.69;5114523;28;19919;-66
2022/10/01 12:44:02;;;;;;;;;;;;;;;46.99;22.77;100615.94;5114501;28;19919;-66
2022/10/01 12:46:41;;;;;;;;;;;;;;;47.23;22.54;100614.19;5114351;28;19974;-66
2022/10/01 12:49:33;;;;;;;;;;;;;;;47.40;22.12;100605.53;5096180;28;19924;-65
2022/10/01 12:52:09;;;;;;;;;;;;;;;47.52;22.07;100612.84;5070847;28;19920;-65